createdAt,value
2018-08-24T00:02:17.098Z,8.10
2018-08-24T00:04:45.963Z,7.92
2018-08-24T00:07:14.257Z,8.65
2018-08-24T00:09:43.001Z,9.50
2018-08-24T00:12:11.619Z,9.85
2018-08-24T00:14:40.550Z,10.00
2018-08-24T00:17:14.055Z,8.98
2018-08-24T00:19:42.797Z,9.15
2018-08-24T00:22:11.096Z,9.23
2018-08-24T00:24:39.344Z,9.08
2018-08-24T00:27:07.310Z,10.60
2018-08-24T00:29:36.818Z,9.83
2018-08-24T00:32:05.094Z,8.85
2018-08-24T00:34:33.646Z,8.68
2018-08-24T00:37:01.891Z,8.98
2018-08-24T00:39:30.130Z,8.18
2018-08-24T00:41:58.516Z,8.38
2018-08-24T00:44:26.790Z,8.13
2018-08-24T00:46:55.121Z,8.03
2018-08-24T00:49:23.406Z,9.15
2018-08-24T00:51:51.642Z,10.03
2018-08-24T00:54:20.226Z,9.60
2018-08-24T00:56:49.498Z,10.00
2018-08-24T00:59:17.770Z,8.95
2018-08-24T01:01:46.026Z,9.88
2018-08-24T01:04:18.398Z,9.70
2018-08-24T01:06:47.515Z,9.88
2018-08-24T01:11:54.802Z,10.70
2018-08-24T01:14:23.593Z,10.93
2018-08-24T01:16:57.167Z,13.08
2018-08-24T01:19:25.872Z,11.18
2018-08-24T01:21:54.142Z,13.10
2018-08-24T01:24:26.954Z,13.62
2018-08-24T01:27:00.629Z,13.05
2018-08-24T01:29:29.415Z,13.03
2018-08-24T01:31:57.721Z,12.18
2018-08-24T01:34:26.316Z,14.07
2018-08-24T01:36:54.694Z,13.45
2018-08-24T01:39:22.965Z,13.25
2018-08-24T01:41:51.426Z,14.70
2018-08-24T01:44:20.417Z,12.05
2018-08-24T01:46:48.712Z,14.20
2018-08-24T01:49:17.017Z,14.07
2018-08-24T01:51:45.314Z,12.18
2018-08-24T01:54:14.004Z,12.05
2018-08-24T01:56:42.289Z,13.90
2018-08-24T01:59:10.795Z,13.10
2018-08-24T02:01:39.472Z,13.55
2018-08-24T02:04:07.819Z,12.65
2018-08-24T02:06:36.422Z,12.45
2018-08-24T02:09:08.451Z,12.73
2018-08-24T02:11:37.024Z,12.25
2018-08-24T02:14:10.270Z,11.70
2018-08-24T02:16:39.613Z,11.43
2018-08-24T02:19:10.406Z,11.50
2018-08-24T02:21:44.029Z,11.85
2018-08-24T02:24:12.921Z,12.60
2018-08-24T02:26:41.895Z,11.78
2018-08-24T02:31:48.810Z,11.25
2018-08-24T02:34:17.648Z,11.55
2018-08-24T02:36:46.363Z,12.93
2018-08-24T02:39:15.787Z,12.07
2018-08-24T02:41:44.239Z,11.40
2018-08-24T02:44:12.758Z,12.55
2018-08-24T02:46:42.709Z,11.85
2018-08-24T02:49:11.288Z,13.13
2018-08-24T02:51:39.542Z,11.22
2018-08-24T02:54:08.145Z,14.07
2018-08-24T02:56:36.408Z,12.40
2018-08-24T02:59:04.681Z,13.53
2018-08-24T03:01:33.314Z,12.82
2018-08-24T03:04:01.582Z,12.45
2018-08-24T03:06:30.424Z,13.58
2018-08-24T03:08:59.186Z,13.48
2018-08-24T03:11:27.483Z,12.63
2018-08-24T03:13:56.541Z,11.18
2018-08-24T03:16:26.136Z,11.25
2018-08-24T03:18:54.894Z,11.22
2018-08-24T03:21:23.118Z,12.43
2018-08-24T03:23:51.415Z,11.68
2018-08-24T03:26:19.706Z,11.35
2018-08-24T03:28:47.968Z,11.12
2018-08-24T03:31:16.512Z,11.73
2018-08-24T03:33:45.343Z,9.78
2018-08-24T03:36:13.613Z,10.25
2018-08-24T03:38:41.891Z,9.73
2018-08-24T03:41:10.205Z,9.30
2018-08-24T03:43:38.463Z,10.25
2018-08-24T03:46:06.801Z,10.10
2018-08-24T03:48:35.699Z,10.23
2018-08-24T03:51:03.941Z,9.80
2018-08-24T03:53:32.638Z,9.35
2018-08-24T03:56:01.820Z,9.65
2018-08-24T03:58:30.098Z,9.08
2018-08-24T04:00:58.753Z,9.53
2018-08-24T04:03:28.161Z,9.00
2018-08-24T04:05:57.029Z,9.30
2018-08-24T04:08:25.310Z,10.35
2018-08-24T04:10:53.949Z,8.70
2018-08-24T04:13:22.207Z,8.93
2018-08-24T04:15:51.066Z,8.65
2018-08-24T04:18:21.805Z,10.03
2018-08-24T04:20:50.105Z,10.30
2018-08-24T04:23:18.403Z,10.32
2018-08-24T04:25:46.740Z,9.60
2018-08-24T04:28:14.941Z,11.50
2018-08-24T04:30:43.289Z,10.23
2018-08-24T04:33:12.635Z,9.65
2018-08-24T04:35:40.980Z,9.38
2018-08-24T04:38:09.504Z,9.95
2018-08-24T04:40:37.782Z,12.13
2018-08-24T04:43:06.827Z,10.68
2018-08-24T04:45:35.155Z,9.20
2018-08-24T04:48:06.733Z,10.30
2018-08-24T04:50:34.961Z,9.78
2018-08-24T04:53:03.773Z,9.85
2018-08-24T04:55:32.358Z,10.20
2018-08-24T04:58:00.668Z,9.75
2018-08-24T05:00:28.930Z,10.28
2018-08-24T05:02:57.209Z,9.83
2018-08-24T05:05:26.307Z,8.85
2018-08-24T05:07:54.605Z,9.88
2018-08-24T05:10:22.896Z,10.13
2018-08-24T05:12:51.377Z,9.93
2018-08-24T05:15:20.482Z,9.80
2018-08-24T05:17:48.764Z,11.43
2018-08-24T05:20:17.717Z,10.30
2018-08-24T05:22:45.989Z,11.10
2018-08-24T05:25:14.301Z,9.55
2018-08-24T05:27:42.590Z,10.55
2018-08-24T05:30:10.993Z,10.08
2018-08-24T05:32:40.049Z,9.98
2018-08-24T05:35:09.050Z,10.20
2018-08-24T05:37:37.338Z,9.05
2018-08-24T05:40:05.986Z,9.18
2018-08-24T05:42:34.235Z,9.63
2018-08-24T05:45:02.498Z,9.58
2018-08-24T05:47:31.059Z,11.35
2018-08-24T05:49:59.319Z,8.90
2018-08-24T05:52:27.798Z,7.85
2018-08-24T05:54:56.540Z,8.45
2018-08-24T05:57:25.069Z,8.50
2018-08-24T05:59:53.353Z,8.23
2018-08-24T06:02:21.675Z,8.73
2018-08-24T06:04:50.403Z,9.33
2018-08-24T06:07:18.678Z,8.18
2018-08-24T06:09:47.872Z,7.85
2018-08-24T06:12:16.214Z,8.03
2018-08-24T06:14:45.291Z,8.63
2018-08-24T06:17:18.946Z,7.70
2018-08-24T06:19:47.876Z,6.92
2018-08-24T06:22:16.730Z,9.30
2018-08-24T06:24:45.046Z,11.18
2018-08-24T06:27:13.310Z,7.20
2018-08-24T06:29:41.588Z,10.58
2018-08-24T06:32:09.878Z,8.80
2018-08-24T06:34:38.765Z,9.10
2018-08-24T06:37:07.067Z,7.55
2018-08-24T06:39:36.146Z,8.00
2018-08-24T06:42:04.924Z,8.00
2018-08-24T06:44:34.310Z,9.78
2018-08-24T06:47:02.576Z,7.20
2018-08-24T06:49:30.832Z,7.45
2018-08-24T06:51:59.410Z,6.72
2018-08-24T06:54:28.122Z,9.03
2018-08-24T06:56:56.738Z,6.55
2018-08-24T06:59:26.019Z,7.00
2018-08-24T07:01:54.315Z,6.95
2018-08-24T07:04:22.578Z,6.60
2018-08-24T07:06:51.438Z,6.60
2018-08-24T07:09:19.713Z,6.33
2018-08-24T07:11:47.974Z,8.93
2018-08-24T07:14:16.885Z,6.58
2018-08-24T07:16:45.145Z,7.75
2018-08-24T07:19:13.874Z,9.05
2018-08-24T07:21:42.158Z,7.35
2018-08-24T07:24:10.665Z,7.67
2018-08-24T07:26:38.936Z,6.03
2018-08-24T07:29:07.197Z,7.45
2018-08-24T07:31:35.523Z,5.78
2018-08-24T07:34:04.727Z,8.13
2018-08-24T07:36:34.055Z,6.60
2018-08-24T07:39:02.777Z,6.72
2018-08-24T07:41:31.080Z,6.15
2018-08-24T07:43:59.309Z,6.30
2018-08-24T07:46:27.582Z,6.22
2018-08-24T07:48:56.121Z,6.75
2018-08-24T07:51:24.443Z,7.33
2018-08-24T07:53:53.131Z,7.12
2018-08-24T07:56:21.386Z,8.28
2018-08-24T07:58:49.733Z,9.40
2018-08-24T08:01:18.014Z,9.45
2018-08-24T08:03:46.857Z,10.20
2018-08-24T08:06:15.687Z,12.10
2018-08-24T08:08:43.938Z,15.30
2018-08-24T08:11:12.194Z,14.60
2018-08-24T08:16:14.594Z,16.15
2018-08-24T08:18:43.307Z,16.20
2018-08-24T08:21:11.550Z,17.30
2018-08-24T08:23:39.825Z,16.20
2018-08-24T08:26:08.186Z,18.55
2018-08-24T08:28:36.705Z,16.07
2018-08-24T08:31:05.074Z,17.27
2018-08-24T08:33:33.345Z,18.82
2018-08-24T08:36:02.255Z,17.45
2018-08-24T08:38:30.564Z,17.10
2018-08-24T08:40:59.663Z,16.85
2018-08-24T08:43:27.954Z,15.45
2018-08-24T08:45:56.235Z,16.62
2018-08-24T08:48:24.646Z,15.50
2018-08-24T08:50:52.922Z,14.85
2018-08-24T08:53:22.410Z,14.03
2018-08-24T08:55:50.646Z,13.28
2018-08-24T08:58:18.910Z,12.70
2018-08-24T09:00:47.179Z,12.13
2018-08-24T09:03:15.468Z,10.93
2018-08-24T09:05:44.282Z,11.38
2018-08-24T09:08:12.526Z,9.93
2018-08-24T09:10:40.781Z,10.95
2018-08-24T09:13:09.198Z,10.45
2018-08-24T09:15:38.440Z,12.47
2018-08-24T09:20:53.102Z,16.35
2018-08-24T09:23:26.586Z,10.45
2018-08-24T09:26:00.434Z,10.25
2018-08-24T09:28:37.363Z,11.55
2018-08-24T09:31:10.399Z,10.75
2018-08-24T09:33:38.986Z,10.53
2018-08-24T09:36:12.594Z,10.35
2018-08-24T09:38:40.878Z,10.20
2018-08-24T09:41:09.154Z,11.53
2018-08-24T09:43:42.962Z,9.80
2018-08-24T09:46:11.274Z,9.73
2018-08-24T09:48:46.630Z,10.98
2018-08-24T09:51:20.153Z,10.25
2018-08-24T09:53:54.231Z,10.32
2018-08-24T09:56:22.494Z,10.72
2018-08-24T09:58:50.747Z,13.53
2018-08-24T10:01:24.439Z,11.75
2018-08-24T10:03:59.171Z,13.10
2018-08-24T10:06:33.081Z,12.93
2018-08-24T10:09:01.322Z,13.32
2018-08-24T10:11:29.570Z,12.30
2018-08-24T10:13:58.600Z,13.98
2018-08-24T10:16:26.868Z,13.32
2018-08-24T10:18:55.430Z,14.20
2018-08-24T10:21:23.678Z,16.02
2018-08-24T10:23:51.947Z,17.05
2018-08-24T10:26:20.233Z,13.88
2018-08-24T10:28:48.484Z,14.30
2018-08-24T10:31:16.838Z,12.90
2018-08-24T10:33:45.158Z,13.62
2018-08-24T10:36:13.464Z,15.38
2018-08-24T10:38:41.721Z,13.85
2018-08-24T10:41:10.447Z,12.65
2018-08-24T10:43:38.774Z,13.00
2018-08-24T10:46:07.160Z,12.55
2018-08-24T10:48:35.383Z,11.57
2018-08-24T10:51:03.616Z,12.28
2018-08-24T10:53:32.460Z,11.63
2018-08-24T10:56:00.774Z,10.43
2018-08-24T10:58:29.334Z,9.08
2018-08-24T11:01:03.350Z,8.90
2018-08-24T11:03:32.079Z,8.03
2018-08-24T11:06:00.774Z,8.93
2018-08-24T11:08:29.020Z,8.68
2018-08-24T11:10:58.090Z,9.35
2018-08-24T11:13:26.324Z,9.00
2018-08-24T11:15:55.051Z,8.65
2018-08-24T11:18:23.943Z,12.28
2018-08-24T11:20:52.206Z,9.70
2018-08-24T11:23:20.469Z,9.25
2018-08-24T11:25:48.722Z,8.83
2018-08-24T11:28:16.971Z,8.85
2018-08-24T11:30:45.331Z,8.68
2018-08-24T11:33:13.631Z,11.12
2018-08-24T11:35:41.890Z,10.00
2018-08-24T11:38:10.156Z,10.48
2018-08-24T11:40:38.458Z,9.63
2018-08-24T11:43:06.768Z,9.03
2018-08-24T11:45:35.474Z,8.73
2018-08-24T11:48:03.899Z,8.33
2018-08-24T11:50:32.131Z,8.65
2018-08-24T11:53:00.966Z,8.95
2018-08-24T11:55:29.955Z,9.08
2018-08-24T11:57:58.242Z,9.00
2018-08-24T12:00:31.770Z,8.85
2018-08-24T12:03:01.610Z,9.25
2018-08-24T12:05:38.191Z,9.40
2018-08-24T12:08:06.555Z,9.28
2018-08-24T12:10:34.730Z,9.10
2018-08-24T12:13:03.033Z,10.45
2018-08-24T12:15:31.756Z,9.15
2018-08-24T12:18:00.188Z,9.90
2018-08-24T12:20:29.128Z,8.95
2018-08-24T12:22:57.420Z,11.03
2018-08-24T12:25:25.658Z,10.08
2018-08-24T12:27:53.939Z,7.90
2018-08-24T12:32:56.069Z,8.00
2018-08-24T12:35:24.340Z,8.23
2018-08-24T12:37:52.681Z,9.28
2018-08-24T12:40:20.957Z,7.55
2018-08-24T12:42:49.271Z,6.97
2018-08-24T12:45:17.621Z,7.35
2018-08-24T12:47:45.886Z,6.53
2018-08-24T12:50:14.674Z,6.05
2018-08-24T12:52:42.939Z,5.87
2018-08-24T12:55:11.667Z,6.53
2018-08-24T12:57:39.914Z,6.83
2018-08-24T13:00:08.203Z,6.03
2018-08-24T13:02:36.498Z,6.62
2018-08-24T13:05:05.778Z,6.22
2018-08-24T13:07:34.037Z,6.47
2018-08-24T13:10:02.334Z,6.47
2018-08-24T13:12:30.589Z,6.53
2018-08-24T13:14:59.321Z,5.72
2018-08-24T13:17:28.022Z,6.50
2018-08-24T13:19:56.717Z,6.08
2018-08-24T13:22:24.978Z,5.95
2018-08-24T13:24:53.221Z,5.58
2018-08-24T13:27:21.595Z,5.12
2018-08-24T13:29:49.763Z,5.85
2018-08-24T13:32:18.091Z,5.65
2018-08-24T13:34:46.352Z,5.33
2018-08-24T13:37:14.657Z,5.72
2018-08-24T13:39:43.412Z,5.78
2018-08-24T13:42:11.679Z,5.72
2018-08-24T13:44:39.934Z,5.62
2018-08-24T13:47:09.042Z,5.25
2018-08-24T13:49:37.325Z,6.08
2018-08-24T13:52:05.636Z,5.25
2018-08-24T13:54:34.632Z,4.90
2018-08-24T13:57:02.902Z,4.53
2018-08-24T13:59:31.227Z,5.33
2018-08-24T14:01:59.494Z,4.60
2018-08-24T14:04:34.105Z,4.67
2018-08-24T14:07:02.386Z,3.90
2018-08-24T14:09:30.639Z,4.28
2018-08-24T14:11:58.904Z,4.67
2018-08-24T14:14:28.062Z,3.98
2018-08-24T14:16:56.344Z,4.15
2018-08-24T14:19:24.873Z,4.87
2018-08-24T14:21:53.127Z,4.33
2018-08-24T14:24:21.890Z,11.38
2018-08-24T14:26:51.024Z,6.20
2018-08-24T14:29:19.293Z,6.08
2018-08-24T14:31:47.650Z,4.72
2018-08-24T14:34:16.218Z,3.65
2018-08-24T14:36:44.787Z,4.90
2018-08-24T14:39:13.200Z,6.45
2018-08-24T14:41:41.502Z,5.00
2018-08-24T14:44:10.030Z,3.50
2018-08-24T14:46:38.294Z,5.85
2018-08-24T14:49:13.790Z,3.40
2018-08-24T14:51:42.086Z,4.58
2018-08-24T14:54:10.693Z,3.98
2018-08-24T14:56:38.974Z,3.58
2018-08-24T14:59:07.286Z,3.77
2018-08-24T15:01:35.567Z,3.17
2018-08-24T15:04:03.847Z,3.58
2018-08-24T15:06:32.862Z,3.87
2018-08-24T15:09:01.118Z,3.77
2018-08-24T15:11:29.394Z,3.72
2018-08-24T15:13:58.073Z,4.67
2018-08-24T15:16:26.378Z,4.67
2018-08-24T15:18:54.926Z,3.67
2018-08-24T15:21:23.178Z,3.33
2018-08-24T15:23:51.455Z,7.55
2018-08-24T15:26:20.278Z,3.60
2018-08-24T15:28:48.967Z,3.67
2018-08-24T15:31:17.222Z,3.70
2018-08-24T15:33:45.477Z,4.03
2018-08-24T15:36:14.081Z,3.42
2018-08-24T15:38:42.339Z,4.28
2018-08-24T15:41:10.630Z,4.10
2018-08-24T15:43:38.897Z,5.40
2018-08-24T15:46:07.419Z,9.75
2018-08-24T15:48:35.895Z,6.05
2018-08-24T15:51:04.166Z,6.40
2018-08-24T15:53:32.896Z,11.22
2018-08-24T15:56:01.150Z,5.97
2018-08-24T15:58:29.414Z,5.75
2018-08-24T16:00:57.826Z,5.40
2018-08-24T16:03:26.106Z,6.05
2018-08-24T16:05:55.014Z,7.12
2018-08-24T16:08:23.283Z,6.58
2018-08-24T16:10:51.570Z,7.45
2018-08-24T16:13:19.826Z,7.28
2018-08-24T16:15:48.437Z,6.85
2018-08-24T16:18:24.382Z,7.25
2018-08-24T16:20:54.085Z,6.55
2018-08-24T16:23:22.809Z,7.50
2018-08-24T16:25:51.462Z,7.47
2018-08-24T16:28:20.205Z,7.47
2018-08-24T16:30:49.330Z,7.45
2018-08-24T16:33:18.329Z,9.05
2018-08-24T16:35:50.554Z,7.80
2018-08-24T16:38:25.896Z,10.10
2018-08-24T16:40:54.171Z,8.65
2018-08-24T16:43:23.045Z,7.50
2018-08-24T16:45:51.335Z,8.15
2018-08-24T16:48:19.630Z,7.00
2018-08-24T16:50:48.413Z,6.55
2018-08-24T16:53:16.991Z,7.03
2018-08-24T16:55:45.257Z,7.30
2018-08-24T16:58:13.574Z,10.88
2018-08-24T17:00:41.991Z,6.97
2018-08-24T17:03:10.298Z,7.80
2018-08-24T17:05:39.309Z,7.45
2018-08-24T17:08:08.230Z,7.45
2018-08-24T17:10:36.573Z,6.40
2018-08-24T17:13:07.492Z,6.50
2018-08-24T17:15:36.121Z,7.05
2018-08-24T17:18:04.416Z,8.98
2018-08-24T17:20:32.902Z,5.92
2018-08-24T17:23:01.188Z,6.62
2018-08-24T17:25:30.070Z,7.15
2018-08-24T17:27:58.382Z,7.97
2018-08-24T17:30:26.712Z,8.23
2018-08-24T17:32:55.190Z,7.92
2018-08-24T17:35:23.522Z,8.80
2018-08-24T17:37:52.517Z,8.88
2018-08-24T17:40:21.578Z,7.10
2018-08-24T17:42:49.853Z,6.30
2018-08-24T17:45:18.089Z,5.67
2018-08-24T17:47:46.338Z,6.12
2018-08-24T17:50:16.059Z,8.03
2018-08-24T17:52:44.812Z,8.05
2018-08-24T17:55:13.538Z,7.00
2018-08-24T17:57:41.834Z,5.92
2018-08-24T18:00:10.134Z,5.90
2018-08-24T18:02:38.800Z,5.37
2018-08-24T18:05:07.800Z,5.62
2018-08-24T18:07:36.090Z,8.10
2018-08-24T18:10:04.456Z,6.20
2018-08-24T18:12:32.910Z,5.60
2018-08-24T18:15:01.955Z,5.83
2018-08-24T18:17:30.077Z,6.05
2018-08-24T18:19:58.849Z,8.20
2018-08-24T18:22:27.166Z,5.87
2018-08-24T18:24:56.069Z,5.95
2018-08-24T18:27:24.294Z,7.20
2018-08-24T18:29:52.574Z,5.58
2018-08-24T18:32:20.890Z,6.15
2018-08-24T18:34:50.569Z,4.75
2018-08-24T18:37:19.179Z,6.25
2018-08-24T18:39:48.006Z,6.62
2018-08-24T18:42:16.690Z,5.75
2018-08-24T18:44:44.960Z,5.92
2018-08-24T18:47:13.542Z,7.72
2018-08-24T18:49:42.103Z,6.62
2018-08-24T18:52:10.634Z,5.40
2018-08-24T18:54:39.299Z,5.35
2018-08-24T18:57:07.652Z,5.00
2018-08-24T18:59:35.924Z,7.62
2018-08-24T19:02:04.227Z,5.28
2018-08-24T19:04:35.322Z,6.08
2018-08-24T19:07:03.626Z,5.87
2018-08-24T19:09:31.919Z,5.08
2018-08-24T19:12:05.610Z,5.97
2018-08-24T19:14:34.404Z,5.67
2018-08-24T19:17:02.738Z,5.10
2018-08-24T19:19:36.758Z,5.72
2018-08-24T19:22:05.282Z,4.60
2018-08-24T19:24:39.958Z,5.33
2018-08-24T19:27:08.957Z,4.85
2018-08-24T19:29:42.474Z,4.60
2018-08-24T19:32:10.795Z,4.87
2018-08-24T19:34:39.022Z,7.33
2018-08-24T19:37:07.911Z,6.15
2018-08-24T19:39:36.874Z,6.10
2018-08-24T19:42:10.824Z,5.33
2018-08-24T19:44:39.070Z,6.70
2018-08-24T19:47:11.554Z,6.20
2018-08-24T19:49:40.265Z,6.08
2018-08-24T19:52:08.809Z,6.53
2018-08-24T19:54:37.162Z,6.70
2018-08-24T19:57:10.696Z,5.97
2018-08-24T19:59:39.058Z,5.95
2018-08-24T20:02:07.363Z,5.62
2018-08-24T20:04:36.310Z,7.03
2018-08-24T20:07:09.929Z,6.47
2018-08-24T20:09:43.642Z,6.22
2018-08-24T20:12:11.990Z,5.85
2018-08-24T20:14:46.565Z,6.50
2018-08-24T20:17:20.165Z,6.65
2018-08-24T20:19:48.826Z,7.90
2018-08-24T20:22:17.110Z,11.48
2018-08-24T20:24:46.072Z,8.63
2018-08-24T20:27:14.359Z,6.85
2018-08-24T20:29:42.627Z,8.58
2018-08-24T20:32:11.058Z,8.18
2018-08-24T20:34:39.577Z,6.90
2018-08-24T20:37:08.349Z,6.40
2018-08-24T20:42:25.094Z,6.85
2018-08-24T20:44:53.370Z,6.83
2018-08-24T20:47:21.713Z,7.67
2018-08-24T20:49:50.506Z,9.00
2018-08-24T20:52:19.234Z,7.25
2018-08-24T20:54:47.537Z,8.78
2018-08-24T20:57:15.769Z,7.65
2018-08-24T20:59:44.066Z,9.60
2018-08-24T21:02:12.343Z,9.73
2018-08-24T21:04:41.223Z,10.60
2018-08-24T21:07:09.540Z,10.28
2018-08-24T21:09:37.920Z,7.40
2018-08-24T21:12:06.516Z,8.00
2018-08-24T21:14:35.245Z,8.05
2018-08-24T21:17:03.523Z,8.45
2018-08-24T21:19:32.095Z,8.93
2018-08-24T21:22:00.438Z,8.23
2018-08-24T21:24:28.762Z,8.83
2018-08-24T21:26:57.473Z,8.40
2018-08-24T21:29:25.734Z,9.30
2018-08-24T21:31:54.298Z,9.13
2018-08-24T21:34:22.589Z,13.35
2018-08-24T21:36:51.221Z,9.70
2018-08-24T21:39:19.928Z,11.28
2018-08-24T21:41:48.450Z,10.53
2018-08-24T21:44:17.301Z,9.53
2018-08-24T21:46:45.570Z,8.80
2018-08-24T21:49:14.565Z,9.20
2018-08-24T21:51:48.738Z,9.30
2018-08-24T21:54:17.010Z,9.73
2018-08-24T21:56:45.394Z,9.35
2018-08-24T21:59:15.105Z,9.68
2018-08-24T22:01:43.539Z,9.43
2018-08-24T22:04:11.938Z,9.28
2018-08-24T22:06:40.618Z,9.48
2018-08-24T22:09:09.578Z,9.17
2018-08-24T22:11:38.204Z,10.53
2018-08-24T22:14:07.006Z,9.28
2018-08-24T22:16:35.363Z,8.90
2018-08-24T22:19:04.155Z,10.25
2018-08-24T22:21:32.490Z,11.90
2018-08-24T22:24:00.858Z,10.53
2018-08-24T22:26:31.199Z,10.17
2018-08-24T22:28:59.769Z,11.80
2018-08-24T22:31:28.044Z,9.70
2018-08-24T22:33:56.426Z,10.18
2018-08-24T22:36:25.104Z,10.63
2018-08-24T22:38:53.605Z,14.77
2018-08-24T22:41:21.877Z,12.63
2018-08-24T22:43:50.361Z,10.10
2018-08-24T22:46:18.652Z,10.30
2018-08-24T22:48:47.032Z,10.67
2018-08-24T22:51:15.412Z,10.37
2018-08-24T22:53:43.929Z,9.77
2018-08-24T22:56:12.224Z,10.00
2018-08-24T22:58:42.064Z,10.35
2018-08-24T23:01:10.378Z,10.27
2018-08-24T23:03:38.661Z,10.07
2018-08-24T23:06:07.136Z,9.77
2018-08-24T23:08:35.419Z,9.67
2018-08-24T23:11:03.809Z,11.33
2018-08-24T23:13:32.099Z,9.40
2018-08-24T23:16:00.827Z,9.50
2018-08-24T23:18:29.789Z,9.10
2018-08-24T23:20:58.574Z,9.70
2018-08-24T23:23:26.872Z,9.43
2018-08-24T23:25:55.495Z,9.47
2018-08-24T23:28:23.771Z,9.80
2018-08-24T23:30:52.142Z,10.63
2018-08-24T23:33:20.841Z,9.83
2018-08-24T23:35:50.158Z,11.97
2018-08-24T23:38:25.761Z,9.03
2018-08-24T23:40:54.047Z,9.43
2018-08-24T23:43:22.536Z,9.30
2018-08-24T23:45:51.102Z,9.03
2018-08-24T23:48:19.394Z,9.40
2018-08-24T23:50:47.674Z,10.50
2018-08-24T23:53:16.278Z,9.10
2018-08-24T23:55:44.551Z,10.88
2018-08-24T23:58:12.870Z,10.97
